sensor_id;sensor_type;location;lat;lon;timestamp;P1;durP1;ratioP1;P2;durP2;ratioP2
62102;SDS011;48077;48.104;11.702;2022-10-23T00:00:39;4.60;;;1.60;;
62102;SDS011;48077;48.104;11.702;2022-10-23T00:03:03;4.70;;;1.80;;
62102;SDS011;48077;48.104;11.702;2022-10-23T00:05:27;2.25;;;1.40;;
62102;SDS011;48077;48.104;11.702;2022-10-23T00:07:51;3.67;;;1.58;;
62102;SDS011;48077;48.104;11.702;2022-10-23T00:10:16;2.85;;;1.77;;
62102;SDS011;48077;48.104;11.702;2022-10-23T00:12:40;3.22;;;1.65;;
62102;SDS011;48077;48.104;11.702;2022-10-23T00:15:04;3.53;;;1.92;;
62102;SDS011;48077;48.104;11.702;2022-10-23T00:17:27;3.22;;;1.80;;
62102;SDS011;48077;48.104;11.702;2022-10-23T00:19:54;3.03;;;1.67;;
62102;SDS011;48077;48.104;11.702;2022-10-23T00:22:17;3.33;;;1.50;;
62102;SDS011;48077;48.104;11.702;2022-10-23T00:24:41;5.07;;;2.00;;
62102;SDS011;48077;48.104;11.702;2022-10-23T00:27:04;3.70;;;2.22;;
62102;SDS011;48077;48.104;11.702;2022-10-23T00:29:28;4.07;;;2.15;;
62102;SDS011;48077;48.104;11.702;2022-10-23T00:31:51;3.95;;;2.08;;
62102;SDS011;48077;48.104;11.702;2022-10-23T00:34:14;3.72;;;2.22;;
62102;SDS011;48077;48.104;11.702;2022-10-23T00:36:38;4.85;;;2.25;;
62102;SDS011;48077;48.104;11.702;2022-10-23T00:39:01;3.80;;;2.08;;
62102;SDS011;48077;48.104;11.702;2022-10-23T00:41:28;3.85;;;1.88;;
62102;SDS011;48077;48.104;11.702;2022-10-23T00:44:08;3.17;;;2.03;;
62102;SDS011;48077;48.104;11.702;2022-10-23T00:46:51;3.55;;;1.90;;
62102;SDS011;48077;48.104;11.702;2022-10-23T00:49:15;3.10;;;1.77;;
62102;SDS011;48077;48.104;11.702;2022-10-23T00:51:40;3.58;;;1.70;;
62102;SDS011;48077;48.104;11.702;2022-10-23T00:54:16;6.03;;;2.10;;
62102;SDS011;48077;48.104;11.702;2022-10-23T00:56:41;4.55;;;2.03;;
62102;SDS011;48077;48.104;11.702;2022-10-23T00:59:06;4.03;;;1.95;;
62102;SDS011;48077;48.104;11.702;2022-10-23T01:01:30;4.03;;;2.03;;
62102;SDS011;48077;48.104;11.702;2022-10-23T01:03:53;3.50;;;2.22;;
62102;SDS011;48077;48.104;11.702;2022-10-23T01:09:11;5.47;;;2.10;;
62102;SDS011;48077;48.104;11.702;2022-10-23T01:19:32;3.67;;;2.13;;
62102;SDS011;48077;48.104;11.702;2022-10-23T01:32:12;3.15;;;1.90;;
62102;SDS011;48077;48.104;11.702;2022-10-23T01:34:46;3.40;;;1.95;;
62102;SDS011;48077;48.104;11.702;2022-10-23T01:37:15;3.95;;;1.98;;
62102;SDS011;48077;48.104;11.702;2022-10-23T01:39:46;3.88;;;2.05;;
62102;SDS011;48077;48.104;11.702;2022-10-23T01:42:15;4.80;;;2.20;;
62102;SDS011;48077;48.104;11.702;2022-10-23T01:44:45;4.63;;;2.08;;
62102;SDS011;48077;48.104;11.702;2022-10-23T01:47:12;4.22;;;1.98;;
62102;SDS011;48077;48.104;11.702;2022-10-23T01:49:37;4.00;;;2.30;;
62102;SDS011;48077;48.104;11.702;2022-10-23T01:52:05;5.70;;;2.17;;
62102;SDS011;48077;48.104;11.702;2022-10-23T01:54:31;3.75;;;2.13;;
62102;SDS011;48077;48.104;11.702;2022-10-23T01:56:58;5.07;;;2.45;;
62102;SDS011;48077;48.104;11.702;2022-10-23T01:59:27;5.63;;;2.28;;
62102;SDS011;48077;48.104;11.702;2022-10-23T02:01:55;5.25;;;2.33;;
62102;SDS011;48077;48.104;11.702;2022-10-23T02:04:22;4.65;;;2.22;;
62102;SDS011;48077;48.104;11.702;2022-10-23T02:06:51;6.32;;;2.60;;
62102;SDS011;48077;48.104;11.702;2022-10-23T02:09:15;6.85;;;3.00;;
62102;SDS011;48077;48.104;11.702;2022-10-23T02:11:40;5.53;;;2.63;;
62102;SDS011;48077;48.104;11.702;2022-10-23T02:14:18;5.07;;;2.70;;
62102;SDS011;48077;48.104;11.702;2022-10-23T02:22:56;4.88;;;2.70;;
62102;SDS011;48077;48.104;11.702;2022-10-23T02:25:26;5.75;;;2.25;;
62102;SDS011;48077;48.104;11.702;2022-10-23T02:27:55;6.13;;;2.83;;
62102;SDS011;48077;48.104;11.702;2022-10-23T02:30:23;6.95;;;3.13;;
62102;SDS011;48077;48.104;11.702;2022-10-23T02:32:48;6.40;;;2.85;;
62102;SDS011;48077;48.104;11.702;2022-10-23T02:35:15;9.23;;;2.95;;
62102;SDS011;48077;48.104;11.702;2022-10-23T02:37:39;10.20;;;3.40;;
62102;SDS011;48077;48.104;11.702;2022-10-23T02:40:03;6.63;;;2.75;;
62102;SDS011;48077;48.104;11.702;2022-10-23T02:42:35;5.90;;;2.75;;
62102;SDS011;48077;48.104;11.702;2022-10-23T02:45:15;5.72;;;2.92;;
62102;SDS011;48077;48.104;11.702;2022-10-23T02:53:13;6.28;;;3.30;;
62102;SDS011;48077;48.104;11.702;2022-10-23T03:03:44;3.65;;;2.08;;
62102;SDS011;48077;48.104;11.702;2022-10-23T03:06:27;5.32;;;2.30;;
62102;SDS011;48077;48.104;11.702;2022-10-23T03:08:52;2.85;;;2.00;;
62102;SDS011;48077;48.104;11.702;2022-10-23T03:11:17;4.10;;;2.33;;
62102;SDS011;48077;48.104;11.702;2022-10-23T03:13:40;7.53;;;2.55;;
62102;SDS011;48077;48.104;11.702;2022-10-23T03:16:04;5.45;;;2.60;;
62102;SDS011;48077;48.104;11.702;2022-10-23T03:18:27;7.38;;;2.70;;
62102;SDS011;48077;48.104;11.702;2022-10-23T03:20:50;4.32;;;2.28;;
62102;SDS011;48077;48.104;11.702;2022-10-23T03:23:14;3.90;;;2.40;;
62102;SDS011;48077;48.104;11.702;2022-10-23T03:25:37;4.72;;;2.67;;
62102;SDS011;48077;48.104;11.702;2022-10-23T03:28:00;3.20;;;2.17;;
62102;SDS011;48077;48.104;11.702;2022-10-23T03:30:24;3.47;;;1.98;;
62102;SDS011;48077;48.104;11.702;2022-10-23T03:32:47;6.00;;;2.40;;
62102;SDS011;48077;48.104;11.702;2022-10-23T03:35:10;3.03;;;2.10;;
62102;SDS011;48077;48.104;11.702;2022-10-23T03:37:34;4.20;;;1.95;;
62102;SDS011;48077;48.104;11.702;2022-10-23T03:39:57;2.78;;;1.83;;
62102;SDS011;48077;48.104;11.702;2022-10-23T03:42:20;3.13;;;1.70;;
62102;SDS011;48077;48.104;11.702;2022-10-23T03:44:44;4.25;;;2.20;;
62102;SDS011;48077;48.104;11.702;2022-10-23T03:47:07;2.92;;;1.70;;
62102;SDS011;48077;48.104;11.702;2022-10-23T03:49:32;3.95;;;1.65;;
62102;SDS011;48077;48.104;11.702;2022-10-23T03:51:55;2.47;;;1.73;;
62102;SDS011;48077;48.104;11.702;2022-10-23T03:54:20;3.65;;;2.13;;
62102;SDS011;48077;48.104;11.702;2022-10-23T03:56:44;3.03;;;1.70;;
62102;SDS011;48077;48.104;11.702;2022-10-23T03:59:08;3.00;;;1.98;;
62102;SDS011;48077;48.104;11.702;2022-10-23T04:01:31;3.75;;;2.00;;
62102;SDS011;48077;48.104;11.702;2022-10-23T04:03:54;3.83;;;1.75;;
62102;SDS011;48077;48.104;11.702;2022-10-23T04:06:18;2.53;;;1.83;;
62102;SDS011;48077;48.104;11.702;2022-10-23T04:08:42;2.85;;;1.80;;
62102;SDS011;48077;48.104;11.702;2022-10-23T04:11:06;3.90;;;2.03;;
62102;SDS011;48077;48.104;11.702;2022-10-23T04:13:29;1.98;;;1.30;;
62102;SDS011;48077;48.104;11.702;2022-10-23T04:15:52;3.33;;;1.85;;
62102;SDS011;48077;48.104;11.702;2022-10-23T04:18:16;2.45;;;1.70;;
62102;SDS011;48077;48.104;11.702;2022-10-23T04:20:40;2.90;;;1.52;;
62102;SDS011;48077;48.104;11.702;2022-10-23T04:23:03;2.08;;;1.55;;
62102;SDS011;48077;48.104;11.702;2022-10-23T04:25:26;2.58;;;1.60;;
62102;SDS011;48077;48.104;11.702;2022-10-23T04:27:50;3.08;;;1.90;;
62102;SDS011;48077;48.104;11.702;2022-10-23T04:30:13;2.63;;;1.88;;
62102;SDS011;48077;48.104;11.702;2022-10-23T04:32:37;3.63;;;1.95;;
62102;SDS011;48077;48.104;11.702;2022-10-23T04:35:00;3.15;;;1.80;;
62102;SDS011;48077;48.104;11.702;2022-10-23T04:37:24;2.63;;;1.80;;
62102;SDS011;48077;48.104;11.702;2022-10-23T04:39:47;2.42;;;1.70;;
62102;SDS011;48077;48.104;11.702;2022-10-23T04:42:10;4.40;;;2.08;;
62102;SDS011;48077;48.104;11.702;2022-10-23T04:44:34;3.88;;;2.10;;
62102;SDS011;48077;48.104;11.702;2022-10-23T04:46:57;2.83;;;1.85;;
62102;SDS011;48077;48.104;11.702;2022-10-23T04:49:20;3.17;;;2.00;;
62102;SDS011;48077;48.104;11.702;2022-10-23T04:51:44;2.75;;;1.88;;
62102;SDS011;48077;48.104;11.702;2022-10-23T04:54:07;2.90;;;2.25;;
62102;SDS011;48077;48.104;11.702;2022-10-23T04:56:31;3.65;;;2.03;;
62102;SDS011;48077;48.104;11.702;2022-10-23T04:58:54;3.30;;;2.30;;
62102;SDS011;48077;48.104;11.702;2022-10-23T05:01:20;3.63;;;2.05;;
62102;SDS011;48077;48.104;11.702;2022-10-23T05:03:44;5.32;;;2.40;;
62102;SDS011;48077;48.104;11.702;2022-10-23T05:06:07;2.90;;;1.90;;
62102;SDS011;48077;48.104;11.702;2022-10-23T05:08:31;3.88;;;1.98;;
62102;SDS011;48077;48.104;11.702;2022-10-23T05:10:54;3.10;;;1.95;;
62102;SDS011;48077;48.104;11.702;2022-10-23T05:13:18;5.35;;;2.42;;
62102;SDS011;48077;48.104;11.702;2022-10-23T05:15:41;4.97;;;2.65;;
62102;SDS011;48077;48.104;11.702;2022-10-23T05:18:10;5.70;;;2.60;;
62102;SDS011;48077;48.104;11.702;2022-10-23T05:20:44;4.43;;;2.38;;
62102;SDS011;48077;48.104;11.702;2022-10-23T05:23:10;4.75;;;2.03;;
62102;SDS011;48077;48.104;11.702;2022-10-23T05:25:35;3.53;;;2.38;;
62102;SDS011;48077;48.104;11.702;2022-10-23T05:27:58;3.13;;;2.00;;
62102;SDS011;48077;48.104;11.702;2022-10-23T05:30:22;7.47;;;2.50;;
62102;SDS011;48077;48.104;11.702;2022-10-23T05:32:45;4.45;;;2.70;;
62102;SDS011;48077;48.104;11.702;2022-10-23T05:35:10;4.28;;;2.78;;
62102;SDS011;48077;48.104;11.702;2022-10-23T05:37:38;3.92;;;2.47;;
62102;SDS011;48077;48.104;11.702;2022-10-23T05:40:03;4.63;;;2.83;;
62102;SDS011;48077;48.104;11.702;2022-10-23T05:42:27;4.75;;;2.78;;
62102;SDS011;48077;48.104;11.702;2022-10-23T05:44:50;6.53;;;3.38;;
62102;SDS011;48077;48.104;11.702;2022-10-23T05:47:14;7.40;;;3.03;;
62102;SDS011;48077;48.104;11.702;2022-10-23T05:49:37;3.97;;;2.55;;
62102;SDS011;48077;48.104;11.702;2022-10-23T05:52:01;12.35;;;7.68;;
62102;SDS011;48077;48.104;11.702;2022-10-23T05:54:24;14.77;;;8.60;;
62102;SDS011;48077;48.104;11.702;2022-10-23T05:56:48;9.98;;;5.93;;
62102;SDS011;48077;48.104;11.702;2022-10-23T05:59:11;7.78;;;5.15;;
62102;SDS011;48077;48.104;11.702;2022-10-23T06:01:35;7.05;;;3.85;;
62102;SDS011;48077;48.104;11.702;2022-10-23T06:03:59;4.78;;;3.05;;
62102;SDS011;48077;48.104;11.702;2022-10-23T06:06:23;5.13;;;2.80;;
62102;SDS011;48077;48.104;11.702;2022-10-23T06:08:46;4.75;;;2.85;;
62102;SDS011;48077;48.104;11.702;2022-10-23T06:11:11;4.65;;;2.70;;
62102;SDS011;48077;48.104;11.702;2022-10-23T06:13:36;4.90;;;2.40;;
62102;SDS011;48077;48.104;11.702;2022-10-23T06:16:06;2.92;;;2.05;;
62102;SDS011;48077;48.104;11.702;2022-10-23T06:18:34;2.85;;;1.95;;
62102;SDS011;48077;48.104;11.702;2022-10-23T06:20:59;3.05;;;2.15;;
62102;SDS011;48077;48.104;11.702;2022-10-23T06:23:23;3.55;;;1.98;;
62102;SDS011;48077;48.104;11.702;2022-10-23T06:25:50;2.55;;;1.88;;
62102;SDS011;48077;48.104;11.702;2022-10-23T06:28:15;3.75;;;2.10;;
62102;SDS011;48077;48.104;11.702;2022-10-23T06:30:38;3.58;;;2.20;;
62102;SDS011;48077;48.104;11.702;2022-10-23T06:33:02;2.90;;;2.00;;
62102;SDS011;48077;48.104;11.702;2022-10-23T06:35:25;4.03;;;2.00;;
62102;SDS011;48077;48.104;11.702;2022-10-23T06:37:49;3.25;;;2.20;;
62102;SDS011;48077;48.104;11.702;2022-10-23T06:40:12;4.35;;;2.00;;
62102;SDS011;48077;48.104;11.702;2022-10-23T06:42:35;4.70;;;2.60;;
62102;SDS011;48077;48.104;11.702;2022-10-23T06:44:59;5.07;;;2.28;;
62102;SDS011;48077;48.104;11.702;2022-10-23T06:47:22;4.40;;;1.95;;
62102;SDS011;48077;48.104;11.702;2022-10-23T06:49:46;3.35;;;1.70;;
62102;SDS011;48077;48.104;11.702;2022-10-23T06:52:09;3.03;;;1.70;;
62102;SDS011;48077;48.104;11.702;2022-10-23T06:54:32;2.63;;;1.73;;
62102;SDS011;48077;48.104;11.702;2022-10-23T06:56:56;2.97;;;1.60;;
62102;SDS011;48077;48.104;11.702;2022-10-23T06:59:19;4.82;;;2.13;;
62102;SDS011;48077;48.104;11.702;2022-10-23T07:01:43;2.50;;;1.65;;
62102;SDS011;48077;48.104;11.702;2022-10-23T07:04:06;3.63;;;1.52;;
62102;SDS011;48077;48.104;11.702;2022-10-23T07:06:29;2.92;;;1.70;;
62102;SDS011;48077;48.104;11.702;2022-10-23T07:08:53;3.55;;;1.42;;
62102;SDS011;48077;48.104;11.702;2022-10-23T07:11:16;2.00;;;1.38;;
62102;SDS011;48077;48.104;11.702;2022-10-23T07:13:40;2.85;;;1.50;;
62102;SDS011;48077;48.104;11.702;2022-10-23T07:16:08;2.38;;;1.58;;
62102;SDS011;48077;48.104;11.702;2022-10-23T07:18:33;2.67;;;1.60;;
62102;SDS011;48077;48.104;11.702;2022-10-23T07:20:57;2.25;;;1.73;;
62102;SDS011;48077;48.104;11.702;2022-10-23T07:23:20;2.80;;;1.70;;
62102;SDS011;48077;48.104;11.702;2022-10-23T07:25:43;3.63;;;1.65;;
62102;SDS011;48077;48.104;11.702;2022-10-23T07:28:07;2.97;;;1.70;;
62102;SDS011;48077;48.104;11.702;2022-10-23T07:30:30;3.03;;;1.65;;
62102;SDS011;48077;48.104;11.702;2022-10-23T07:32:54;4.65;;;2.05;;
62102;SDS011;48077;48.104;11.702;2022-10-23T07:35:17;2.90;;;1.50;;
62102;SDS011;48077;48.104;11.702;2022-10-23T07:37:41;2.95;;;1.48;;
62102;SDS011;48077;48.104;11.702;2022-10-23T07:40:04;1.83;;;1.20;;
62102;SDS011;48077;48.104;11.702;2022-10-23T07:42:28;3.50;;;1.67;;
62102;SDS011;48077;48.104;11.702;2022-10-23T07:44:52;2.10;;;1.30;;
62102;SDS011;48077;48.104;11.702;2022-10-23T07:47:15;3.30;;;1.80;;
62102;SDS011;48077;48.104;11.702;2022-10-23T07:49:38;2.53;;;1.30;;
62102;SDS011;48077;48.104;11.702;2022-10-23T07:52:03;1.70;;;1.40;;
62102;SDS011;48077;48.104;11.702;2022-10-23T07:54:27;2.08;;;1.50;;
62102;SDS011;48077;48.104;11.702;2022-10-23T07:56:50;2.13;;;1.40;;
62102;SDS011;48077;48.104;11.702;2022-10-23T07:59:14;3.35;;;1.70;;
62102;SDS011;48077;48.104;11.702;2022-10-23T08:01:38;3.70;;;1.70;;
62102;SDS011;48077;48.104;11.702;2022-10-23T08:04:03;2.30;;;1.65;;
62102;SDS011;48077;48.104;11.702;2022-10-23T08:06:27;3.72;;;2.00;;
62102;SDS011;48077;48.104;11.702;2022-10-23T08:08:50;4.00;;;2.15;;
62102;SDS011;48077;48.104;11.702;2022-10-23T08:11:14;3.30;;;1.80;;
62102;SDS011;48077;48.104;11.702;2022-10-23T08:13:40;3.35;;;1.70;;
62102;SDS011;48077;48.104;11.702;2022-10-23T08:16:03;2.80;;;1.70;;
62102;SDS011;48077;48.104;11.702;2022-10-23T08:18:27;4.57;;;1.67;;
62102;SDS011;48077;48.104;11.702;2022-10-23T08:20:50;2.08;;;1.30;;
62102;SDS011;48077;48.104;11.702;2022-10-23T08:23:15;4.22;;;1.73;;
62102;SDS011;48077;48.104;11.702;2022-10-23T08:25:40;2.97;;;1.58;;
62102;SDS011;48077;48.104;11.702;2022-10-23T08:28:04;2.92;;;1.40;;
62102;SDS011;48077;48.104;11.702;2022-10-23T08:30:28;3.95;;;1.73;;
62102;SDS011;48077;48.104;11.702;2022-10-23T08:32:52;3.15;;;1.30;;
62102;SDS011;48077;48.104;11.702;2022-10-23T08:35:15;3.42;;;1.40;;
62102;SDS011;48077;48.104;11.702;2022-10-23T08:37:38;2.13;;;1.45;;
62102;SDS011;48077;48.104;11.702;2022-10-23T08:40:02;2.22;;;1.42;;
62102;SDS011;48077;48.104;11.702;2022-10-23T08:42:26;1.95;;;1.10;;
62102;SDS011;48077;48.104;11.702;2022-10-23T08:48:03;3.55;;;1.20;;
62102;SDS011;48077;48.104;11.702;2022-10-23T08:50:31;2.65;;;1.42;;
62102;SDS011;48077;48.104;11.702;2022-10-23T08:53:03;2.42;;;1.20;;
62102;SDS011;48077;48.104;11.702;2022-10-23T08:55:41;3.07;;;1.23;;
62102;SDS011;48077;48.104;11.702;2022-10-23T08:58:14;2.50;;;1.13;;
62102;SDS011;48077;48.104;11.702;2022-10-23T09:00:45;1.65;;;1.25;;
62102;SDS011;48077;48.104;11.702;2022-10-23T09:03:10;1.80;;;1.23;;
62102;SDS011;48077;48.104;11.702;2022-10-23T09:10:50;2.47;;;0.95;;
62102;SDS011;48077;48.104;11.702;2022-10-23T09:15:48;2.35;;;1.38;;
62102;SDS011;48077;48.104;11.702;2022-10-23T09:18:26;2.90;;;1.38;;
62102;SDS011;48077;48.104;11.702;2022-10-23T09:20:49;2.10;;;1.38;;
62102;SDS011;48077;48.104;11.702;2022-10-23T09:25:40;3.13;;;1.58;;
62102;SDS011;48077;48.104;11.702;2022-10-23T09:28:04;1.60;;;1.02;;
62102;SDS011;48077;48.104;11.702;2022-10-23T09:32:54;1.27;;;1.05;;
62102;SDS011;48077;48.104;11.702;2022-10-23T09:35:21;2.17;;;1.27;;
62102;SDS011;48077;48.104;11.702;2022-10-23T09:37:46;2.70;;;1.20;;
62102;SDS011;48077;48.104;11.702;2022-10-23T09:40:18;2.83;;;1.17;;
62102;SDS011;48077;48.104;11.702;2022-10-23T09:42:53;2.08;;;1.05;;
62102;SDS011;48077;48.104;11.702;2022-10-23T09:45:23;1.70;;;0.93;;
62102;SDS011;48077;48.104;11.702;2022-10-23T09:47:48;1.38;;;0.95;;
62102;SDS011;48077;48.104;11.702;2022-10-23T09:50:19;1.67;;;1.05;;
62102;SDS011;48077;48.104;11.702;2022-10-23T09:52:43;13.27;;;1.80;;
62102;SDS011;48077;48.104;11.702;2022-10-23T09:55:19;1.35;;;1.00;;
62102;SDS011;48077;48.104;11.702;2022-10-23T09:57:46;1.90;;;1.05;;
62102;SDS011;48077;48.104;11.702;2022-10-23T10:02:36;2.00;;;1.08;;
62102;SDS011;48077;48.104;11.702;2022-10-23T10:05:10;1.90;;;1.17;;
62102;SDS011;48077;48.104;11.702;2022-10-23T10:07:51;2.85;;;1.10;;
62102;SDS011;48077;48.104;11.702;2022-10-23T10:10:17;1.38;;;1.10;;
62102;SDS011;48077;48.104;11.702;2022-10-23T10:12:47;8.60;;;5.55;;
62102;SDS011;48077;48.104;11.702;2022-10-23T10:15:21;4.40;;;2.35;;
62102;SDS011;48077;48.104;11.702;2022-10-23T10:23:03;2.72;;;1.20;;
62102;SDS011;48077;48.104;11.702;2022-10-23T10:28:28;2.47;;;2.10;;
62102;SDS011;48077;48.104;11.702;2022-10-23T10:37:20;1.58;;;1.00;;
62102;SDS011;48077;48.104;11.702;2022-10-23T10:43:07;1.33;;;0.80;;
62102;SDS011;48077;48.104;11.702;2022-10-23T10:45:46;2.63;;;1.20;;
62102;SDS011;48077;48.104;11.702;2022-10-23T10:48:15;0.80;;;0.80;;
62102;SDS011;48077;48.104;11.702;2022-10-23T10:51:07;2.53;;;1.00;;
62102;SDS011;48077;48.104;11.702;2022-10-23T10:53:51;2.08;;;1.15;;
62102;SDS011;48077;48.104;11.702;2022-10-23T10:56:16;1.63;;;1.00;;
62102;SDS011;48077;48.104;11.702;2022-10-23T10:58:49;2.25;;;1.23;;
62102;SDS011;48077;48.104;11.702;2022-10-23T11:01:19;1.42;;;0.90;;
62102;SDS011;48077;48.104;11.702;2022-10-23T11:03:58;3.08;;;2.15;;
62102;SDS011;48077;48.104;11.702;2022-10-23T11:06:28;1.17;;;1.00;;
62102;SDS011;48077;48.104;11.702;2022-10-23T11:11:27;1.25;;;0.98;;
62102;SDS011;48077;48.104;11.702;2022-10-23T11:13:57;1.52;;;1.10;;
62102;SDS011;48077;48.104;11.702;2022-10-23T11:18:52;2.97;;;1.27;;
62102;SDS011;48077;48.104;11.702;2022-10-23T11:37:15;1.08;;;0.90;;
62102;SDS011;48077;48.104;11.702;2022-10-23T11:39:40;1.65;;;1.00;;
62102;SDS011;48077;48.104;11.702;2022-10-23T11:42:44;1.05;;;0.80;;
62102;SDS011;48077;48.104;11.702;2022-10-23T11:45:29;4.03;;;1.08;;
62102;SDS011;48077;48.104;11.702;2022-10-23T11:47:56;2.53;;;1.00;;
62102;SDS011;48077;48.104;11.702;2022-10-23T11:50:26;1.02;;;0.90;;
62102;SDS011;48077;48.104;11.702;2022-10-23T11:55:24;1.10;;;0.90;;
62102;SDS011;48077;48.104;11.702;2022-10-23T11:58:25;0.80;;;0.80;;
62102;SDS011;48077;48.104;11.702;2022-10-23T12:00:51;1.85;;;1.15;;
62102;SDS011;48077;48.104;11.702;2022-10-23T12:03:22;3.85;;;1.20;;
62102;SDS011;48077;48.104;11.702;2022-10-23T12:05:59;3.97;;;2.60;;
62102;SDS011;48077;48.104;11.702;2022-10-23T12:08:27;2.55;;;1.75;;
62102;SDS011;48077;48.104;11.702;2022-10-23T12:10:53;2.72;;;1.77;;
62102;SDS011;48077;48.104;11.702;2022-10-23T12:13:29;1.67;;;1.15;;
62102;SDS011;48077;48.104;11.702;2022-10-23T12:15:58;1.60;;;1.20;;
62102;SDS011;48077;48.104;11.702;2022-10-23T12:18:22;1.33;;;1.00;;
62102;SDS011;48077;48.104;11.702;2022-10-23T12:30:57;1.35;;;0.90;;
62102;SDS011;48077;48.104;11.702;2022-10-23T12:33:26;1.00;;;0.80;;
62102;SDS011;48077;48.104;11.702;2022-10-23T12:38:42;2.28;;;0.95;;
62102;SDS011;48077;48.104;11.702;2022-10-23T12:43:38;2.70;;;1.08;;
62102;SDS011;48077;48.104;11.702;2022-10-23T12:46:15;2.58;;;1.00;;
62102;SDS011;48077;48.104;11.702;2022-10-23T12:48:48;4.22;;;2.40;;
62102;SDS011;48077;48.104;11.702;2022-10-23T12:51:25;3.17;;;2.73;;
62102;SDS011;48077;48.104;11.702;2022-10-23T12:53:50;3.10;;;2.28;;
62102;SDS011;48077;48.104;11.702;2022-10-23T12:56:16;2.40;;;1.77;;
62102;SDS011;48077;48.104;11.702;2022-10-23T12:58:44;2.92;;;1.30;;
62102;SDS011;48077;48.104;11.702;2022-10-23T13:01:20;1.23;;;1.10;;
62102;SDS011;48077;48.104;11.702;2022-10-23T13:03:47;1.08;;;0.93;;
62102;SDS011;48077;48.104;11.702;2022-10-23T13:06:11;0.95;;;0.82;;
62102;SDS011;48077;48.104;11.702;2022-10-23T13:08:39;1.05;;;0.90;;
62102;SDS011;48077;48.104;11.702;2022-10-23T13:11:05;1.48;;;1.00;;
62102;SDS011;48077;48.104;11.702;2022-10-23T13:13:30;1.45;;;1.02;;
62102;SDS011;48077;48.104;11.702;2022-10-23T13:15:54;1.23;;;1.00;;
62102;SDS011;48077;48.104;11.702;2022-10-23T13:18:17;1.85;;;1.00;;
62102;SDS011;48077;48.104;11.702;2022-10-23T13:20:42;1.10;;;0.90;;
62102;SDS011;48077;48.104;11.702;2022-10-23T13:23:29;1.05;;;0.73;;
62102;SDS011;48077;48.104;11.702;2022-10-23T13:25:56;2.40;;;1.15;;
62102;SDS011;48077;48.104;11.702;2022-10-23T13:28:25;2.28;;;1.38;;
62102;SDS011;48077;48.104;11.702;2022-10-23T13:30:57;2.60;;;1.27;;
62102;SDS011;48077;48.104;11.702;2022-10-23T13:33:24;2.17;;;1.40;;
62102;SDS011;48077;48.104;11.702;2022-10-23T13:36:01;1.60;;;1.10;;
62102;SDS011;48077;48.104;11.702;2022-10-23T13:40:55;1.10;;;0.90;;
62102;SDS011;48077;48.104;11.702;2022-10-23T13:43:21;1.75;;;1.25;;
62102;SDS011;48077;48.104;11.702;2022-10-23T13:45:46;1.15;;;0.90;;
62102;SDS011;48077;48.104;11.702;2022-10-23T13:48:11;2.00;;;1.20;;
62102;SDS011;48077;48.104;11.702;2022-10-23T13:50:36;2.08;;;1.20;;
62102;SDS011;48077;48.104;11.702;2022-10-23T13:53:00;2.20;;;1.15;;
62102;SDS011;48077;48.104;11.702;2022-10-23T13:55:23;2.35;;;1.17;;
62102;SDS011;48077;48.104;11.702;2022-10-23T13:57:48;2.22;;;1.27;;
62102;SDS011;48077;48.104;11.702;2022-10-23T14:00:12;1.75;;;1.02;;
62102;SDS011;48077;48.104;11.702;2022-10-23T14:02:37;1.67;;;0.93;;
62102;SDS011;48077;48.104;11.702;2022-10-23T14:05:00;1.90;;;1.08;;
62102;SDS011;48077;48.104;11.702;2022-10-23T14:07:23;1.83;;;1.15;;
62102;SDS011;48077;48.104;11.702;2022-10-23T14:09:47;2.60;;;1.15;;
62102;SDS011;48077;48.104;11.702;2022-10-23T14:12:10;1.38;;;1.00;;
62102;SDS011;48077;48.104;11.702;2022-10-23T14:14:34;2.20;;;1.00;;
62102;SDS011;48077;48.104;11.702;2022-10-23T14:16:57;1.42;;;0.90;;
62102;SDS011;48077;48.104;11.702;2022-10-23T14:19:21;1.83;;;1.00;;
62102;SDS011;48077;48.104;11.702;2022-10-23T14:21:44;0.98;;;0.80;;
62102;SDS011;48077;48.104;11.702;2022-10-23T14:24:07;1.45;;;1.02;;
62102;SDS011;48077;48.104;11.702;2022-10-23T14:26:31;3.67;;;0.95;;
62102;SDS011;48077;48.104;11.702;2022-10-23T14:28:55;1.38;;;0.93;;
62102;SDS011;48077;48.104;11.702;2022-10-23T14:31:20;1.05;;;0.90;;
62102;SDS011;48077;48.104;11.702;2022-10-23T14:33:44;1.25;;;0.90;;
62102;SDS011;48077;48.104;11.702;2022-10-23T14:36:08;1.38;;;0.90;;
62102;SDS011;48077;48.104;11.702;2022-10-23T14:38:33;1.80;;;1.17;;
62102;SDS011;48077;48.104;11.702;2022-10-23T14:40:56;6.90;;;4.32;;
62102;SDS011;48077;48.104;11.702;2022-10-23T14:43:20;6.53;;;4.57;;
62102;SDS011;48077;48.104;11.702;2022-10-23T14:45:44;5.30;;;3.60;;
62102;SDS011;48077;48.104;11.702;2022-10-23T14:48:08;4.70;;;2.80;;
62102;SDS011;48077;48.104;11.702;2022-10-23T14:50:32;3.17;;;2.20;;
62102;SDS011;48077;48.104;11.702;2022-10-23T14:52:57;3.20;;;1.58;;
62102;SDS011;48077;48.104;11.702;2022-10-23T14:55:20;2.42;;;1.67;;
62102;SDS011;48077;48.104;11.702;2022-10-23T14:57:44;2.13;;;1.35;;
62102;SDS011;48077;48.104;11.702;2022-10-23T15:00:07;3.35;;;1.30;;
62102;SDS011;48077;48.104;11.702;2022-10-23T15:02:31;1.85;;;1.05;;
62102;SDS011;48077;48.104;11.702;2022-10-23T15:04:54;1.52;;;1.00;;
62102;SDS011;48077;48.104;11.702;2022-10-23T15:07:18;1.42;;;1.02;;
62102;SDS011;48077;48.104;11.702;2022-10-23T15:09:41;1.67;;;1.10;;
62102;SDS011;48077;48.104;11.702;2022-10-23T15:12:05;1.42;;;1.13;;
62102;SDS011;48077;48.104;11.702;2022-10-23T15:14:29;1.77;;;1.10;;
62102;SDS011;48077;48.104;11.702;2022-10-23T15:16:52;3.20;;;1.50;;
62102;SDS011;48077;48.104;11.702;2022-10-23T15:19:15;1.35;;;0.90;;
62102;SDS011;48077;48.104;11.702;2022-10-23T15:21:39;2.72;;;1.42;;
62102;SDS011;48077;48.104;11.702;2022-10-23T15:24:02;2.28;;;1.20;;
62102;SDS011;48077;48.104;11.702;2022-10-23T15:26:26;2.75;;;1.25;;
62102;SDS011;48077;48.104;11.702;2022-10-23T15:28:53;2.97;;;1.10;;
62102;SDS011;48077;48.104;11.702;2022-10-23T15:34:05;2.42;;;1.20;;
62102;SDS011;48077;48.104;11.702;2022-10-23T15:36:30;2.30;;;1.38;;
62102;SDS011;48077;48.104;11.702;2022-10-23T15:38:54;1.80;;;1.17;;
62102;SDS011;48077;48.104;11.702;2022-10-23T15:41:20;1.92;;;1.02;;
62102;SDS011;48077;48.104;11.702;2022-10-23T15:43:48;2.00;;;1.20;;
62102;SDS011;48077;48.104;11.702;2022-10-23T15:46:14;3.95;;;1.27;;
62102;SDS011;48077;48.104;11.702;2022-10-23T15:48:37;2.25;;;1.30;;
62102;SDS011;48077;48.104;11.702;2022-10-23T15:51:01;1.80;;;0.95;;
62102;SDS011;48077;48.104;11.702;2022-10-23T15:53:24;2.53;;;0.90;;
62102;SDS011;48077;48.104;11.702;2022-10-23T15:55:48;1.45;;;0.90;;
62102;SDS011;48077;48.104;11.702;2022-10-23T15:58:11;1.45;;;1.00;;
62102;SDS011;48077;48.104;11.702;2022-10-23T16:00:35;1.98;;;1.00;;
62102;SDS011;48077;48.104;11.702;2022-10-23T16:02:59;0.82;;;0.77;;
62102;SDS011;48077;48.104;11.702;2022-10-23T16:05:22;1.63;;;1.08;;
62102;SDS011;48077;48.104;11.702;2022-10-23T16:07:46;1.73;;;1.15;;
62102;SDS011;48077;48.104;11.702;2022-10-23T16:10:09;1.77;;;0.88;;
62102;SDS011;48077;48.104;11.702;2022-10-23T16:12:32;2.47;;;1.40;;
62102;SDS011;48077;48.104;11.702;2022-10-23T16:14:56;2.55;;;1.40;;
62102;SDS011;48077;48.104;11.702;2022-10-23T16:17:19;1.70;;;1.10;;
62102;SDS011;48077;48.104;11.702;2022-10-23T16:19:42;1.40;;;1.00;;
62102;SDS011;48077;48.104;11.702;2022-10-23T16:22:06;1.40;;;1.10;;
62102;SDS011;48077;48.104;11.702;2022-10-23T16:24:30;1.52;;;1.02;;
62102;SDS011;48077;48.104;11.702;2022-10-23T16:26:54;2.00;;;1.05;;